createdAt,value
2022-12-08T00:00:17.591Z,0.90
2022-12-08T00:02:47.568Z,0.90
2022-12-08T00:05:30.148Z,0.90
2022-12-08T00:08:15.155Z,0.90
2022-12-08T00:10:49.468Z,0.90
2022-12-08T00:13:19.828Z,0.90
2022-12-08T00:15:49.683Z,0.80
2022-12-08T00:18:19.524Z,0.80
2022-12-08T00:20:49.365Z,0.80
2022-12-08T00:23:21.720Z,0.70
2022-12-08T00:25:51.508Z,0.70
2022-12-08T00:28:21.815Z,0.70
2022-12-08T00:30:51.654Z,0.70
2022-12-08T00:33:21.428Z,0.70
2022-12-08T00:35:51.212Z,0.90
2022-12-08T00:38:23.571Z,1.00
2022-12-08T00:40:53.420Z,1.00
2022-12-08T00:43:23.271Z,1.10
2022-12-08T00:45:53.207Z,1.10
2022-12-08T00:48:23.057Z,1.10
2022-12-08T00:50:53.033Z,1.30
2022-12-08T00:53:25.420Z,1.30
2022-12-08T00:55:55.204Z,1.30
2022-12-08T00:58:25.036Z,1.30
2022-12-08T01:00:54.915Z,1.30
2022-12-08T01:03:25.556Z,1.30
2022-12-08T01:05:55.648Z,1.30
2022-12-08T01:08:28.110Z,1.30
2022-12-08T01:10:57.980Z,1.30
2022-12-08T01:13:27.776Z,1.20
2022-12-08T01:15:57.613Z,1.20
2022-12-08T01:18:27.728Z,1.10
2022-12-08T01:20:57.599Z,1.10
2022-12-08T01:23:31.167Z,1.00
2022-12-08T01:26:05.866Z,0.90
2022-12-08T01:28:36.692Z,1.00
2022-12-08T01:31:06.701Z,0.90
2022-12-08T01:33:36.631Z,0.90
2022-12-08T01:36:07.006Z,0.80
2022-12-08T01:38:39.358Z,0.80
2022-12-08T01:41:09.383Z,0.70
2022-12-08T01:44:04.528Z,0.70
2022-12-08T01:46:35.311Z,0.70
2022-12-08T01:49:09.223Z,0.70
2022-12-08T01:51:45.164Z,0.60
2022-12-08T01:54:18.245Z,0.50
2022-12-08T01:57:00.789Z,0.50
2022-12-08T01:59:33.261Z,0.50
2022-12-08T02:02:03.306Z,0.50
2022-12-08T02:04:33.072Z,0.50
2022-12-08T02:07:07.819Z,0.40
2022-12-08T02:09:42.777Z,0.40
2022-12-08T02:12:12.998Z,0.30
2022-12-08T02:14:43.009Z,0.30
2022-12-08T02:17:27.002Z,0.30
2022-12-08T02:20:26.011Z,0.30
2022-12-08T02:23:04.221Z,0.20
2022-12-08T02:25:49.333Z,0.20
2022-12-08T02:28:49.427Z,0.20
2022-12-08T02:31:32.871Z,0.30
2022-12-08T02:34:16.179Z,0.30
2022-12-08T02:36:53.736Z,0.30
2022-12-08T02:39:35.917Z,0.20
2022-12-08T02:42:18.505Z,0.20
2022-12-08T02:44:55.585Z,0.20
2022-12-08T02:47:27.768Z,0.20
2022-12-08T02:50:01.658Z,0.20
2022-12-08T02:52:46.209Z,0.20
2022-12-08T02:55:29.128Z,0.20
2022-12-08T02:58:29.395Z,0.10
2022-12-08T03:01:14.467Z,0.10
2022-12-08T03:03:53.877Z,0.00
2022-12-08T03:06:34.315Z,0.10
2022-12-08T03:09:10.045Z,0.10
2022-12-08T03:11:46.804Z,0.10
2022-12-08T03:14:20.184Z,0.10
2022-12-08T03:16:53.404Z,0.00
2022-12-08T03:19:26.709Z,0.00
2022-12-08T03:22:03.267Z,-0.10
2022-12-08T03:24:36.049Z,-0.10
2022-12-08T03:27:09.834Z,-0.10
2022-12-08T03:29:39.813Z,-0.10
2022-12-08T03:32:15.969Z,-0.10
2022-12-08T03:34:48.836Z,0.00
2022-12-08T03:37:21.579Z,-0.10
2022-12-08T03:39:51.595Z,-0.10
2022-12-08T03:42:21.547Z,-0.10
2022-12-08T03:44:51.384Z,-0.10
2022-12-08T03:47:21.198Z,-0.20
2022-12-08T03:49:51.055Z,-0.10
2022-12-08T03:52:23.468Z,-0.10
2022-12-08T03:54:53.443Z,-0.10
2022-12-08T03:57:23.284Z,-0.10
2022-12-08T03:59:53.190Z,-0.10
2022-12-08T04:02:23.081Z,-0.10
2022-12-08T04:04:52.911Z,-0.20
2022-12-08T04:07:25.330Z,-0.20
2022-12-08T04:09:55.088Z,-0.20
2022-12-08T04:12:24.898Z,-0.10
2022-12-08T04:14:54.745Z,-0.10
2022-12-08T04:17:24.585Z,-0.20
2022-12-08T04:19:54.452Z,-0.20
2022-12-08T04:22:26.807Z,-0.10
2022-12-08T04:24:56.854Z,-0.10
2022-12-08T04:27:26.776Z,-0.10
2022-12-08T04:29:56.551Z,0.00
2022-12-08T04:32:26.340Z,0.00
2022-12-08T04:34:56.143Z,0.00
2022-12-08T04:37:28.607Z,0.10
2022-12-08T04:39:58.608Z,0.10
2022-12-08T04:42:28.440Z,0.10
2022-12-08T04:44:58.211Z,0.20
2022-12-08T04:47:28.016Z,0.20
2022-12-08T04:49:57.868Z,0.20
2022-12-08T04:52:30.292Z,0.20
2022-12-08T04:55:00.043Z,0.20
2022-12-08T04:57:29.929Z,0.20
2022-12-08T04:59:59.913Z,0.20
2022-12-08T05:02:29.812Z,0.20
2022-12-08T05:04:59.669Z,0.10
2022-12-08T05:07:32.111Z,0.10
2022-12-08T05:10:02.134Z,0.00
2022-12-08T05:12:32.198Z,0.10
2022-12-08T05:15:01.964Z,0.10
2022-12-08T05:17:31.908Z,0.10
2022-12-08T05:20:02.045Z,0.00
2022-12-08T05:22:34.660Z,0.00
2022-12-08T05:25:04.424Z,0.00
2022-12-08T05:27:34.292Z,0.00
2022-12-08T05:30:04.385Z,0.00
2022-12-08T05:32:34.616Z,0.00
2022-12-08T05:35:04.483Z,0.00
2022-12-08T05:37:37.258Z,0.00
2022-12-08T05:40:08.221Z,0.10
2022-12-08T05:42:38.060Z,0.00
2022-12-08T05:45:08.978Z,0.10
2022-12-08T05:47:38.823Z,0.10
2022-12-08T05:50:10.359Z,0.10
2022-12-08T05:52:42.667Z,0.10
2022-12-08T05:55:13.112Z,0.10
2022-12-08T05:57:42.911Z,0.10
2022-12-08T06:00:13.858Z,0.20
2022-12-08T06:02:43.837Z,0.20
2022-12-08T06:05:13.704Z,0.20
2022-12-08T06:07:46.298Z,0.10
2022-12-08T06:10:16.120Z,0.10
2022-12-08T06:12:45.864Z,0.10
2022-12-08T06:15:15.641Z,0.20
2022-12-08T06:17:45.376Z,0.20
2022-12-08T06:20:15.464Z,0.10
2022-12-08T06:22:47.844Z,0.20
2022-12-08T06:25:20.956Z,0.20
2022-12-08T06:27:50.791Z,0.20
2022-12-08T06:30:21.088Z,0.20
2022-12-08T06:32:50.887Z,0.20
2022-12-08T06:35:20.876Z,0.20
2022-12-08T06:37:53.687Z,0.20
2022-12-08T06:40:23.550Z,0.20
2022-12-08T06:42:53.417Z,0.20
2022-12-08T06:45:23.304Z,0.20
2022-12-08T06:47:53.108Z,0.20
2022-12-08T06:50:23.187Z,0.30
2022-12-08T06:53:04.493Z,0.20
2022-12-08T06:55:57.817Z,0.20
2022-12-08T06:58:24.504Z,0.30
2022-12-08T07:00:54.361Z,0.30
2022-12-08T07:03:24.136Z,0.20
2022-12-08T07:06:03.572Z,0.30
2022-12-08T07:08:37.433Z,0.30
2022-12-08T07:11:14.106Z,0.30
2022-12-08T07:13:46.535Z,0.40
2022-12-08T07:16:16.647Z,0.40
2022-12-08T07:18:46.644Z,0.40
2022-12-08T07:21:17.478Z,0.40
2022-12-08T07:23:57.320Z,0.50
2022-12-08T07:26:28.100Z,0.60
2022-12-08T07:28:57.848Z,0.60
2022-12-08T07:31:29.020Z,0.60
2022-12-08T07:33:59.915Z,0.60
2022-12-08T07:36:30.003Z,0.60
2022-12-08T07:39:02.345Z,0.60
2022-12-08T07:41:32.148Z,0.50
2022-12-08T07:44:01.950Z,0.60
2022-12-08T07:46:31.878Z,0.60
2022-12-08T07:49:01.677Z,0.70
2022-12-08T07:51:31.568Z,0.60
2022-12-08T07:54:03.916Z,0.60
2022-12-08T07:56:34.772Z,0.60
2022-12-08T07:59:04.560Z,0.70
2022-12-08T08:01:36.716Z,0.70
2022-12-08T08:04:08.335Z,0.70
2022-12-08T08:06:38.870Z,0.70
2022-12-08T08:09:11.842Z,0.70
2022-12-08T08:11:41.680Z,0.70
2022-12-08T08:14:11.426Z,0.80
2022-12-08T08:16:46.354Z,0.80
2022-12-08T08:19:16.243Z,0.80
2022-12-08T08:21:46.541Z,0.80
2022-12-08T08:24:19.239Z,0.80
2022-12-08T08:26:48.997Z,0.90
2022-12-08T08:29:18.838Z,0.90
2022-12-08T08:31:48.656Z,0.90
2022-12-08T08:34:18.627Z,0.90
2022-12-08T08:36:48.525Z,0.90
2022-12-08T08:39:21.020Z,1.00
2022-12-08T08:41:50.859Z,0.90
2022-12-08T08:44:20.599Z,1.00
2022-12-08T08:46:50.464Z,0.90
2022-12-08T08:49:20.283Z,0.90
2022-12-08T08:51:50.480Z,1.00
2022-12-08T08:54:22.916Z,1.10
2022-12-08T08:56:52.743Z,1.10
2022-12-08T08:59:22.587Z,1.20
2022-12-08T09:01:52.583Z,1.20
2022-12-08T09:04:25.673Z,1.30
2022-12-08T09:06:55.563Z,1.40
2022-12-08T09:09:27.961Z,1.50
2022-12-08T09:11:57.929Z,1.50
2022-12-08T09:14:28.018Z,1.70
2022-12-08T09:16:57.915Z,1.70
2022-12-08T09:19:28.760Z,1.80
2022-12-08T09:21:59.017Z,1.80
2022-12-08T09:24:31.657Z,1.90
2022-12-08T09:27:01.548Z,1.90
2022-12-08T09:29:35.963Z,2.00
2022-12-08T09:32:06.508Z,2.00
2022-12-08T09:34:36.395Z,2.10
2022-12-08T09:37:06.228Z,2.20
2022-12-08T09:39:38.676Z,2.20
2022-12-08T09:42:09.914Z,2.30
2022-12-08T09:44:51.908Z,2.40
2022-12-08T09:47:28.396Z,2.40
2022-12-08T09:50:07.975Z,2.40
2022-12-08T09:52:50.052Z,2.40
2022-12-08T09:55:25.120Z,2.50
2022-12-08T09:58:05.360Z,2.60
2022-12-08T10:00:42.990Z,2.70
2022-12-08T10:03:16.864Z,2.70
2022-12-08T10:05:52.466Z,2.70
2022-12-08T10:08:28.138Z,3.00
2022-12-08T10:11:02.309Z,3.10
2022-12-08T10:13:38.213Z,3.20
2022-12-08T10:16:28.005Z,3.10
2022-12-08T10:19:04.203Z,3.00
2022-12-08T10:21:34.426Z,3.10
2022-12-08T10:24:13.057Z,3.20
2022-12-08T10:26:46.123Z,3.40
2022-12-08T10:29:16.802Z,3.30
2022-12-08T10:31:46.623Z,3.40
2022-12-08T10:34:20.432Z,3.40
2022-12-08T10:36:56.180Z,3.40
2022-12-08T10:39:37.427Z,3.40
2022-12-08T10:42:22.204Z,3.60
2022-12-08T10:45:03.429Z,3.60
2022-12-08T10:47:42.496Z,3.70
2022-12-08T10:50:24.000Z,3.60
2022-12-08T10:52:58.656Z,3.50
2022-12-08T10:55:28.655Z,3.50
2022-12-08T10:58:01.002Z,3.50
2022-12-08T11:00:31.374Z,3.60
2022-12-08T11:03:27.586Z,3.60
2022-12-08T11:06:03.969Z,3.80
2022-12-08T11:08:45.849Z,3.70
2022-12-08T11:11:16.950Z,3.80
2022-12-08T11:13:52.989Z,3.70
2022-12-08T11:16:23.121Z,3.80
2022-12-08T11:18:59.535Z,3.90
2022-12-08T11:21:39.384Z,4.00
2022-12-08T11:24:25.916Z,4.10
2022-12-08T11:27:02.495Z,4.10
2022-12-08T11:29:36.745Z,4.00
2022-12-08T11:32:14.082Z,4.20
2022-12-08T11:34:48.751Z,4.20
2022-12-08T11:37:21.644Z,4.20
2022-12-08T11:39:54.172Z,4.10
2022-12-08T11:42:27.301Z,4.20
2022-12-08T11:45:03.270Z,4.30
2022-12-08T11:47:40.380Z,4.20
2022-12-08T11:50:22.215Z,4.30
2022-12-08T11:52:54.248Z,4.30
2022-12-08T11:55:38.985Z,4.40
2022-12-08T11:58:17.451Z,4.40
2022-12-08T12:00:50.100Z,4.40
2022-12-08T12:03:29.819Z,4.30
2022-12-08T12:06:53.293Z,4.40
2022-12-08T12:09:16.152Z,4.40
2022-12-08T12:12:12.645Z,4.40
2022-12-08T12:15:01.083Z,4.60
2022-12-08T12:17:44.853Z,4.30
2022-12-08T12:20:20.119Z,4.40
2022-12-08T12:22:55.124Z,4.40
2022-12-08T12:25:28.044Z,4.30
2022-12-08T12:28:02.613Z,4.30
2022-12-08T12:30:35.573Z,4.30
2022-12-08T12:33:13.485Z,4.40
2022-12-08T12:35:47.966Z,4.40
2022-12-08T12:38:36.038Z,4.40
2022-12-08T12:41:08.111Z,4.40
2022-12-08T12:43:39.859Z,4.20
2022-12-08T12:46:39.783Z,4.30
2022-12-08T12:49:39.715Z,4.30
2022-12-08T12:52:43.261Z,4.30
2022-12-08T12:55:53.771Z,4.30
2022-12-08T12:58:42.761Z,4.30
2022-12-08T13:01:49.432Z,4.40
2022-12-08T13:04:20.287Z,4.50
2022-12-08T13:06:53.037Z,4.30
2022-12-08T13:09:31.655Z,4.30
2022-12-08T13:12:06.814Z,4.20
2022-12-08T13:14:39.012Z,4.00
2022-12-08T13:17:14.428Z,4.00
2022-12-08T13:19:51.756Z,4.10
2022-12-08T13:22:52.150Z,4.10
2022-12-08T13:25:53.968Z,4.20
2022-12-08T13:28:27.727Z,4.30
2022-12-08T13:31:00.219Z,4.20
2022-12-08T13:33:35.363Z,4.20
2022-12-08T13:36:14.399Z,4.20
2022-12-08T13:38:48.271Z,4.10
2022-12-08T13:41:25.718Z,4.10
2022-12-08T13:44:56.727Z,4.10
2022-12-08T13:47:32.388Z,4.20
2022-12-08T13:51:51.219Z,4.30
2022-12-08T13:58:38.038Z,4.30
2022-12-08T14:01:10.751Z,4.20
2022-12-08T14:04:20.492Z,4.30
2022-12-08T14:06:41.857Z,4.30
2022-12-08T14:09:16.439Z,4.30
2022-12-08T14:11:49.869Z,4.20
2022-12-08T14:14:46.285Z,4.20
2022-12-08T14:17:20.171Z,4.10
2022-12-08T14:19:57.648Z,4.10
2022-12-08T14:22:27.606Z,4.10
2022-12-08T14:24:57.601Z,4.10
2022-12-08T14:27:30.448Z,4.00
2022-12-08T14:30:05.008Z,4.00
2022-12-08T14:32:36.557Z,4.00
2022-12-08T14:35:21.349Z,4.10
2022-12-08T14:37:53.301Z,4.00
2022-12-08T14:40:26.641Z,4.10
2022-12-08T14:43:08.641Z,4.10
2022-12-08T14:45:50.659Z,4.10
2022-12-08T14:48:28.360Z,4.00
2022-12-08T14:51:04.005Z,4.30
2022-12-08T14:53:40.765Z,4.20
2022-12-08T14:56:17.134Z,4.10
2022-12-08T14:58:47.450Z,4.00
2022-12-08T15:01:24.489Z,4.00
2022-12-08T15:03:55.535Z,4.00
2022-12-08T15:06:25.800Z,4.00
2022-12-08T15:08:58.673Z,4.00
2022-12-08T15:11:38.460Z,3.90
2022-12-08T15:14:33.624Z,3.90
2022-12-08T15:17:06.992Z,3.80
2022-12-08T15:19:37.203Z,3.80
2022-12-08T15:22:24.544Z,3.80
2022-12-08T15:24:54.160Z,3.80
2022-12-08T15:27:26.879Z,3.80
2022-12-08T15:29:56.726Z,3.80
2022-12-08T15:32:29.065Z,3.80
2022-12-08T15:34:58.992Z,3.80
2022-12-08T15:37:29.129Z,3.80
2022-12-08T15:39:58.877Z,3.80
2022-12-08T15:42:28.709Z,3.80
2022-12-08T15:44:58.552Z,3.80
2022-12-08T15:47:32.760Z,3.80
2022-12-08T15:50:04.843Z,3.80
2022-12-08T15:52:36.853Z,3.80
2022-12-08T15:55:07.175Z,3.80
2022-12-08T15:58:30.745Z,3.80
2022-12-08T16:09:21.744Z,3.70
2022-12-08T16:12:07.845Z,3.70
2022-12-08T16:17:31.832Z,3.60
2022-12-08T16:20:05.606Z,3.50
2022-12-08T16:22:56.735Z,3.50
2022-12-08T16:25:27.316Z,3.40
2022-12-08T16:28:02.959Z,3.50
2022-12-08T16:30:36.109Z,3.50
2022-12-08T16:33:06.301Z,3.40
2022-12-08T16:35:38.642Z,3.40
2022-12-08T16:38:08.586Z,3.50
2022-12-08T16:40:59.293Z,3.50
2022-12-08T16:43:26.487Z,3.50
2022-12-08T16:45:56.308Z,3.50
2022-12-08T16:48:26.125Z,3.40
2022-12-08T16:50:58.883Z,3.50
2022-12-08T16:53:28.759Z,3.40
2022-12-08T16:55:59.294Z,3.40
2022-12-08T16:58:30.079Z,3.40
2022-12-08T17:01:00.233Z,3.30
2022-12-08T17:03:30.290Z,3.20
2022-12-08T17:06:02.718Z,3.10
2022-12-08T17:08:34.826Z,3.00
2022-12-08T17:11:12.151Z,3.00
2022-12-08T17:13:44.699Z,3.10
2022-12-08T17:16:19.167Z,3.10
2022-12-08T17:18:49.782Z,3.00
2022-12-08T17:21:22.932Z,2.90
2022-12-08T17:23:52.840Z,2.90
2022-12-08T17:26:22.680Z,2.90
2022-12-08T17:29:00.566Z,2.90
2022-12-08T17:31:32.353Z,2.80
2022-12-08T17:34:02.974Z,2.80
2022-12-08T17:36:35.408Z,2.80
2022-12-08T17:39:07.549Z,2.80
2022-12-08T17:41:38.176Z,2.80
2022-12-08T17:44:14.689Z,2.80
2022-12-08T17:46:50.710Z,2.70
2022-12-08T17:49:24.691Z,2.70
2022-12-08T17:51:59.296Z,2.80
2022-12-08T17:54:29.347Z,2.80
2022-12-08T17:56:59.945Z,2.80
2022-12-08T17:59:31.184Z,2.80
2022-12-08T18:02:01.794Z,2.70
2022-12-08T18:04:32.095Z,2.70
2022-12-08T18:07:04.555Z,2.70
2022-12-08T18:09:34.586Z,2.70
2022-12-08T18:12:04.418Z,2.70
2022-12-08T18:14:34.406Z,2.70
2022-12-08T18:17:04.304Z,2.70
2022-12-08T18:19:34.153Z,2.70
2022-12-08T18:22:06.720Z,2.70
2022-12-08T18:24:36.547Z,2.80
2022-12-08T18:27:06.687Z,2.80
2022-12-08T18:29:36.860Z,2.80
2022-12-08T18:32:06.680Z,2.70
2022-12-08T18:34:37.032Z,2.80
2022-12-08T18:37:09.984Z,2.80
2022-12-08T18:39:40.238Z,2.80
2022-12-08T18:42:22.492Z,2.80
2022-12-08T18:44:52.749Z,2.80
2022-12-08T18:47:22.552Z,2.80
2022-12-08T18:49:52.431Z,2.70
2022-12-08T18:52:31.137Z,2.70
2022-12-08T18:55:07.065Z,2.80
2022-12-08T18:57:37.622Z,2.70
2022-12-08T19:00:10.149Z,2.60
2022-12-08T19:02:40.394Z,2.70
2022-12-08T19:05:12.207Z,2.70
2022-12-08T19:07:45.733Z,2.60
2022-12-08T19:10:16.040Z,2.60
2022-12-08T19:12:45.905Z,2.60
2022-12-08T19:15:17.499Z,2.60
2022-12-08T19:17:47.418Z,2.60
2022-12-08T19:20:17.506Z,2.60
2022-12-08T19:22:50.066Z,2.70
2022-12-08T19:25:21.327Z,2.60
2022-12-08T19:27:51.141Z,2.60
2022-12-08T19:30:21.047Z,2.70
2022-12-08T19:32:52.498Z,2.70
2022-12-08T19:35:22.436Z,2.70
2022-12-08T19:37:55.058Z,2.70
2022-12-08T19:40:37.551Z,2.70
2022-12-08T19:43:19.993Z,2.80
2022-12-08T19:45:49.861Z,2.80
2022-12-08T19:48:19.839Z,2.70
2022-12-08T19:50:49.867Z,2.80
2022-12-08T19:53:23.386Z,2.70
2022-12-08T19:55:53.649Z,2.80
2022-12-08T19:58:23.583Z,2.70
2022-12-08T20:00:53.491Z,2.70
2022-12-08T20:03:24.882Z,2.70
2022-12-08T20:05:55.455Z,2.70
2022-12-08T20:08:28.760Z,2.70
2022-12-08T20:10:59.439Z,2.60
2022-12-08T20:13:41.805Z,2.70
2022-12-08T20:16:11.765Z,2.60
2022-12-08T20:18:42.299Z,2.50
2022-12-08T20:21:13.588Z,2.40
2022-12-08T20:23:48.787Z,2.40
2022-12-08T20:26:20.905Z,2.30
2022-12-08T20:28:51.196Z,2.30
2022-12-08T20:31:22.195Z,2.30
2022-12-08T20:33:52.376Z,2.30
2022-12-08T20:36:23.794Z,2.30
2022-12-08T20:38:57.248Z,2.30
2022-12-08T20:41:27.254Z,2.30
2022-12-08T20:43:57.095Z,2.30
2022-12-08T20:46:26.969Z,2.30
2022-12-08T20:48:59.301Z,2.30
2022-12-08T20:51:31.998Z,2.20
2022-12-08T20:54:04.733Z,2.20
2022-12-08T20:56:35.060Z,2.20
2022-12-08T20:59:05.213Z,2.20
2022-12-08T21:01:35.305Z,2.20
2022-12-08T21:04:05.467Z,2.30
2022-12-08T21:06:35.571Z,2.30
2022-12-08T21:09:09.045Z,2.30
2022-12-08T21:11:39.311Z,2.20
2022-12-08T21:14:09.408Z,2.20
2022-12-08T21:16:39.632Z,2.10
2022-12-08T21:19:09.879Z,2.10
2022-12-08T21:21:40.207Z,2.10
2022-12-08T21:24:12.967Z,2.00
2022-12-08T21:26:42.837Z,2.00
2022-12-08T21:29:14.142Z,2.00
2022-12-08T21:31:44.184Z,2.00
2022-12-08T21:34:14.379Z,2.00
2022-12-08T21:36:44.327Z,2.00
2022-12-08T21:39:16.733Z,2.00
2022-12-08T21:41:59.136Z,2.00
2022-12-08T21:44:29.380Z,1.90
2022-12-08T21:46:59.409Z,1.80
2022-12-08T21:49:29.457Z,1.60
2022-12-08T21:51:59.544Z,1.70
2022-12-08T21:54:32.184Z,1.60
2022-12-08T21:57:02.103Z,1.50
2022-12-08T21:59:32.176Z,1.40
2022-12-08T22:02:02.537Z,1.30
2022-12-08T22:04:32.679Z,1.30
2022-12-08T22:07:02.653Z,1.20
2022-12-08T22:09:35.332Z,1.10
2022-12-08T22:12:05.319Z,1.00
2022-12-08T22:14:35.294Z,1.00
2022-12-08T22:17:05.285Z,0.90
2022-12-08T22:19:35.501Z,0.90
2022-12-08T22:22:05.522Z,1.00
2022-12-08T22:24:37.884Z,0.90
2022-12-08T22:27:07.594Z,0.80
2022-12-08T22:29:37.630Z,0.80
2022-12-08T22:32:08.056Z,0.80
2022-12-08T22:34:38.187Z,0.70
2022-12-08T22:37:08.159Z,0.70
2022-12-08T22:39:40.606Z,0.80
2022-12-08T22:42:10.761Z,0.70
2022-12-08T22:44:43.237Z,0.60
2022-12-08T22:47:13.061Z,0.60
2022-12-08T22:49:42.939Z,0.50
2022-12-08T22:52:12.665Z,0.50
2022-12-08T22:54:45.091Z,0.40
2022-12-08T22:57:14.896Z,0.40
2022-12-08T22:59:44.784Z,0.30
2022-12-08T23:02:14.764Z,0.20
2022-12-08T23:04:46.372Z,0.20
2022-12-08T23:07:16.497Z,0.10
2022-12-08T23:09:49.105Z,0.10
2022-12-08T23:12:19.124Z,0.00
2022-12-08T23:14:48.916Z,0.00
2022-12-08T23:17:18.934Z,0.00
2022-12-08T23:19:48.921Z,0.00
2022-12-08T23:22:18.744Z,0.00
2022-12-08T23:24:51.108Z,-0.10
2022-12-08T23:27:21.095Z,-0.10
2022-12-08T23:29:50.961Z,-0.20
2022-12-08T23:32:20.792Z,-0.20
2022-12-08T23:34:50.779Z,-0.10
2022-12-08T23:37:20.585Z,-0.10
2022-12-08T23:39:53.088Z,-0.20
2022-12-08T23:42:22.935Z,-0.10
2022-12-08T23:44:52.853Z,-0.20
2022-12-08T23:47:22.740Z,-0.10
2022-12-08T23:49:52.641Z,-0.20
2022-12-08T23:52:22.536Z,-0.30
2022-12-08T23:54:55.665Z,-0.30
2022-12-08T23:57:25.549Z,-0.40
2022-12-08T23:59:55.406Z,-0.40
